sensor_id;sensor_type;location;lat;lon;timestamp;pressure;altitude;pressure_sealevel;temperature;humidity
72959;BME280;60008;50.826;6.896;2023-02-03T00:00:17;102051.41;;;8.66;100.00
72959;BME280;60008;50.826;6.896;2023-02-03T00:03:02;102053.09;;;8.67;100.00
72959;BME280;60008;50.826;6.896;2023-02-03T00:05:48;102041.44;;;8.69;100.00
72959;BME280;60008;50.826;6.896;2023-02-03T00:08:34;102034.59;;;8.67;100.00
72959;BME280;60008;50.826;6.896;2023-02-03T00:11:20;102023.16;;;8.66;100.00
72959;BME280;60008;50.826;6.896;2023-02-03T00:14:05;102014.25;;;8.67;100.00
72959;BME280;60008;50.826;6.896;2023-02-03T00:16:51;102015.72;;;8.71;100.00
72959;BME280;60008;50.826;6.896;2023-02-03T00:19:36;102007.19;;;8.68;100.00
72959;BME280;60008;50.826;6.896;2023-02-03T00:22:21;102011.63;;;8.67;100.00
72959;BME280;60008;50.826;6.896;2023-02-03T00:25:06;101994.59;;;8.71;100.00
72959;BME280;60008;50.826;6.896;2023-02-03T00:27:51;101988.59;;;8.69;100.00
72959;BME280;60008;50.826;6.896;2023-02-03T00:30:36;102003.00;;;8.76;100.00
72959;BME280;60008;50.826;6.896;2023-02-03T00:33:21;101993.28;;;8.77;100.00
72959;BME280;60008;50.826;6.896;2023-02-03T00:36:07;101984.13;;;8.70;100.00
72959;BME280;60008;50.826;6.896;2023-02-03T00:38:52;101979.81;;;8.69;100.00
72959;BME280;60008;50.826;6.896;2023-02-03T00:41:37;101963.94;;;8.69;100.00
72959;BME280;60008;50.826;6.896;2023-02-03T00:44:22;101967.53;;;8.68;100.00
72959;BME280;60008;50.826;6.896;2023-02-03T00:47:07;101974.41;;;8.70;100.00
72959;BME280;60008;50.826;6.896;2023-02-03T00:49:52;101976.69;;;8.75;100.00
72959;BME280;60008;50.826;6.896;2023-02-03T00:52:37;101968.03;;;8.73;100.00
72959;BME280;60008;50.826;6.896;2023-02-03T00:55:22;101967.06;;;8.74;100.00
72959;BME280;60008;50.826;6.896;2023-02-03T00:58:07;101959.00;;;8.75;100.00
72959;BME280;60008;50.826;6.896;2023-02-03T01:00:54;101959.16;;;8.74;100.00
72959;BME280;60008;50.826;6.896;2023-02-03T01:03:40;101944.25;;;8.73;100.00
72959;BME280;60008;50.826;6.896;2023-02-03T01:06:26;101959.28;;;8.72;100.00
72959;BME280;60008;50.826;6.896;2023-02-03T01:09:11;101963.50;;;8.75;100.00
72959;BME280;60008;50.826;6.896;2023-02-03T01:11:56;101950.13;;;8.76;100.00
72959;BME280;60008;50.826;6.896;2023-02-03T01:14:41;101947.72;;;8.73;100.00
72959;BME280;60008;50.826;6.896;2023-02-03T01:17:26;101956.38;;;8.75;100.00
72959;BME280;60008;50.826;6.896;2023-02-03T01:20:11;101947.63;;;8.75;100.00
72959;BME280;60008;50.826;6.896;2023-02-03T01:22:57;101950.84;;;8.78;100.00
72959;BME280;60008;50.826;6.896;2023-02-03T01:25:42;101954.47;;;8.77;100.00
72959;BME280;60008;50.826;6.896;2023-02-03T01:28:27;101963.22;;;8.78;100.00
72959;BME280;60008;50.826;6.896;2023-02-03T01:31:17;101968.41;;;8.79;100.00
72959;BME280;60008;50.826;6.896;2023-02-03T01:34:02;101974.41;;;8.81;100.00
72959;BME280;60008;50.826;6.896;2023-02-03T01:36:47;101995.44;;;8.83;100.00
72959;BME280;60008;50.826;6.896;2023-02-03T01:39:32;101998.09;;;8.83;100.00
72959;BME280;60008;50.826;6.896;2023-02-03T01:42:17;102004.56;;;8.79;100.00
72959;BME280;60008;50.826;6.896;2023-02-03T01:45:03;102009.63;;;8.82;100.00
72959;BME280;60008;50.826;6.896;2023-02-03T01:47:54;102000.00;;;8.81;100.00
72959;BME280;60008;50.826;6.896;2023-02-03T01:50:39;102005.28;;;8.81;100.00
72959;BME280;60008;50.826;6.896;2023-02-03T01:53:24;102000.59;;;8.84;100.00
72959;BME280;60008;50.826;6.896;2023-02-03T01:56:10;102012.03;;;8.85;100.00
72959;BME280;60008;50.826;6.896;2023-02-03T01:58:56;102014.78;;;8.83;100.00
72959;BME280;60008;50.826;6.896;2023-02-03T02:01:43;102013.09;;;8.82;100.00
72959;BME280;60008;50.826;6.896;2023-02-03T02:04:33;102016.84;;;8.80;100.00
72959;BME280;60008;50.826;6.896;2023-02-03T02:07:22;102022.97;;;8.80;100.00
72959;BME280;60008;50.826;6.896;2023-02-03T02:10:08;102022.84;;;8.82;100.00
72959;BME280;60008;50.826;6.896;2023-02-03T02:12:56;102022.13;;;8.80;100.00
72959;BME280;60008;50.826;6.896;2023-02-03T02:15:57;102010.69;;;8.79;100.00
72959;BME280;60008;50.826;6.896;2023-02-03T02:22:19;102005.03;;;8.84;100.00
72959;BME280;60008;50.826;6.896;2023-02-03T02:28:09;101991.13;;;8.82;100.00
72959;BME280;60008;50.826;6.896;2023-02-03T02:34:02;102006.75;;;8.85;100.00
72959;BME280;60008;50.826;6.896;2023-02-03T02:37:04;102000.13;;;8.79;100.00
72959;BME280;60008;50.826;6.896;2023-02-03T02:43:02;101984.03;;;8.82;100.00
72959;BME280;60008;50.826;6.896;2023-02-03T02:45:53;101970.44;;;8.76;100.00
72959;BME280;60008;50.826;6.896;2023-02-03T02:48:48;101962.50;;;8.76;100.00
72959;BME280;60008;50.826;6.896;2023-02-03T02:51:37;101961.56;;;8.77;100.00
72959;BME280;60008;50.826;6.896;2023-02-03T02:54:25;101958.91;;;8.77;100.00
72959;BME280;60008;50.826;6.896;2023-02-03T02:57:12;101955.66;;;8.73;100.00
72959;BME280;60008;50.826;6.896;2023-02-03T02:59:58;101962.41;;;8.77;100.00
72959;BME280;60008;50.826;6.896;2023-02-03T03:02:43;101958.69;;;8.80;100.00
72959;BME280;60008;50.826;6.896;2023-02-03T03:05:28;101943.78;;;8.79;100.00
72959;BME280;60008;50.826;6.896;2023-02-03T03:08:15;101960.00;;;8.85;100.00
72959;BME280;60008;50.826;6.896;2023-02-03T03:11:03;101969.13;;;8.81;100.00
72959;BME280;60008;50.826;6.896;2023-02-03T03:13:51;101970.69;;;8.84;100.00
72959;BME280;60008;50.826;6.896;2023-02-03T03:16:38;101966.47;;;8.81;100.00
72959;BME280;60008;50.826;6.896;2023-02-03T03:19:33;101965.41;;;8.84;100.00
72959;BME280;60008;50.826;6.896;2023-02-03T03:22:26;101961.81;;;8.85;100.00
72959;BME280;60008;50.826;6.896;2023-02-03T03:25:18;101958.31;;;8.84;100.00
72959;BME280;60008;50.826;6.896;2023-02-03T03:28:10;101960.00;;;8.85;100.00
72959;BME280;60008;50.826;6.896;2023-02-03T03:30:57;101942.44;;;8.84;100.00
72959;BME280;60008;50.826;6.896;2023-02-03T03:33:43;101940.03;;;8.81;100.00
72959;BME280;60008;50.826;6.896;2023-02-03T03:36:40;101943.53;;;8.82;100.00
72959;BME280;60008;50.826;6.896;2023-02-03T03:39:38;101963.47;;;8.86;100.00
72959;BME280;60008;50.826;6.896;2023-02-03T03:46:00;101968.16;;;8.82;100.00
72959;BME280;60008;50.826;6.896;2023-02-03T03:48:59;101964.53;;;8.83;100.00
72959;BME280;60008;50.826;6.896;2023-02-03T03:51:54;101964.06;;;8.78;100.00
72959;BME280;60008;50.826;6.896;2023-02-03T03:54:41;101955.91;;;8.81;100.00
72959;BME280;60008;50.826;6.896;2023-02-03T03:57:44;101952.41;;;8.81;100.00
72959;BME280;60008;50.826;6.896;2023-02-03T04:00:33;101957.69;;;8.81;100.00
72959;BME280;60008;50.826;6.896;2023-02-03T04:03:24;101959.63;;;8.79;100.00
72959;BME280;60008;50.826;6.896;2023-02-03T04:06:12;101977.19;;;8.80;100.00
72959;BME280;60008;50.826;6.896;2023-02-03T04:08:57;101973.56;;;8.81;100.00
72959;BME280;60008;50.826;6.896;2023-02-03T04:11:42;101967.47;;;8.80;100.00
72959;BME280;60008;50.826;6.896;2023-02-03T04:14:45;101976.34;;;8.79;100.00
72959;BME280;60008;50.826;6.896;2023-02-03T04:17:30;101960.47;;;8.79;100.00
72959;BME280;60008;50.826;6.896;2023-02-03T04:20:17;101948.34;;;8.77;100.00
72959;BME280;60008;50.826;6.896;2023-02-03T04:23:02;101960.25;;;8.82;100.00
72959;BME280;60008;50.826;6.896;2023-02-03T04:25:47;101934.53;;;8.84;100.00
72959;BME280;60008;50.826;6.896;2023-02-03T04:28:32;101918.53;;;8.86;100.00
72959;BME280;60008;50.826;6.896;2023-02-03T04:31:17;101925.88;;;8.82;100.00
72959;BME280;60008;50.826;6.896;2023-02-03T04:34:02;101923.34;;;8.81;100.00
72959;BME280;60008;50.826;6.896;2023-02-03T04:36:47;101936.44;;;8.82;100.00
72959;BME280;60008;50.826;6.896;2023-02-03T04:39:31;101933.56;;;8.85;100.00
72959;BME280;60008;50.826;6.896;2023-02-03T04:42:17;101938.13;;;8.83;100.00
72959;BME280;60008;50.826;6.896;2023-02-03T04:45:02;101927.31;;;8.86;100.00
72959;BME280;60008;50.826;6.896;2023-02-03T04:47:50;101914.81;;;8.88;100.00
72959;BME280;60008;50.826;6.896;2023-02-03T04:50:38;101928.53;;;8.93;100.00
72959;BME280;60008;50.826;6.896;2023-02-03T04:53:23;101931.88;;;8.84;100.00
72959;BME280;60008;50.826;6.896;2023-02-03T04:56:08;101951.22;;;8.85;100.00
72959;BME280;60008;50.826;6.896;2023-02-03T04:58:53;101943.91;;;8.88;100.00
72959;BME280;60008;50.826;6.896;2023-02-03T05:01:37;101941.59;;;8.84;100.00
72959;BME280;60008;50.826;6.896;2023-02-03T05:04:23;101943.06;;;8.77;100.00
72959;BME280;60008;50.826;6.896;2023-02-03T05:07:08;101948.69;;;8.83;100.00
72959;BME280;60008;50.826;6.896;2023-02-03T05:09:53;101940.53;;;8.86;100.00
72959;BME280;60008;50.826;6.896;2023-02-03T05:12:38;101943.78;;;8.90;100.00
72959;BME280;60008;50.826;6.896;2023-02-03T05:15:23;101954.47;;;8.88;100.00
72959;BME280;60008;50.826;6.896;2023-02-03T05:18:08;101944.97;;;8.86;100.00
72959;BME280;60008;50.826;6.896;2023-02-03T05:20:53;101926.44;;;8.86;100.00
72959;BME280;60008;50.826;6.896;2023-02-03T05:23:38;101966.94;;;8.86;100.00
72959;BME280;60008;50.826;6.896;2023-02-03T05:26:22;101964.31;;;8.86;100.00
72959;BME280;60008;50.826;6.896;2023-02-03T05:29:07;101945.47;;;8.80;100.00
72959;BME280;60008;50.826;6.896;2023-02-03T05:31:54;101940.28;;;8.78;100.00
72959;BME280;60008;50.826;6.896;2023-02-03T05:34:38;101941.84;;;8.81;100.00
72959;BME280;60008;50.826;6.896;2023-02-03T05:37:26;101939.56;;;8.87;100.00
72959;BME280;60008;50.826;6.896;2023-02-03T05:40:12;101925.50;;;8.87;100.00
72959;BME280;60008;50.826;6.896;2023-02-03T05:43:15;101919.97;;;8.90;100.00
72959;BME280;60008;50.826;6.896;2023-02-03T05:46:01;101920.84;;;8.90;100.00
72959;BME280;60008;50.826;6.896;2023-02-03T05:48:47;101917.56;;;8.87;100.00
72959;BME280;60008;50.826;6.896;2023-02-03T05:51:32;101924.09;;;8.94;100.00
72959;BME280;60008;50.826;6.896;2023-02-03T05:54:17;101899.31;;;8.95;100.00
72959;BME280;60008;50.826;6.896;2023-02-03T05:57:02;101906.38;;;8.94;100.00
72959;BME280;60008;50.826;6.896;2023-02-03T05:59:46;101905.44;;;8.95;100.00
72959;BME280;60008;50.826;6.896;2023-02-03T06:02:33;101912.41;;;8.96;100.00
72959;BME280;60008;50.826;6.896;2023-02-03T06:05:19;101908.09;;;8.95;100.00
72959;BME280;60008;50.826;6.896;2023-02-03T06:08:04;101934.75;;;8.92;100.00
72959;BME280;60008;50.826;6.896;2023-02-03T06:10:49;101926.13;;;8.90;100.00
72959;BME280;60008;50.826;6.896;2023-02-03T06:13:34;101942.09;;;8.89;100.00
72959;BME280;60008;50.826;6.896;2023-02-03T06:16:19;101945.47;;;8.91;100.00
72959;BME280;60008;50.826;6.896;2023-02-03T06:19:04;101927.78;;;8.91;100.00
72959;BME280;60008;50.826;6.896;2023-02-03T06:21:49;101927.06;;;8.89;100.00
72959;BME280;60008;50.826;6.896;2023-02-03T06:24:34;101921.78;;;8.89;100.00
72959;BME280;60008;50.826;6.896;2023-02-03T06:27:19;101935.13;;;8.88;100.00
72959;BME280;60008;50.826;6.896;2023-02-03T06:30:04;101945.56;;;8.89;100.00
72959;BME280;60008;50.826;6.896;2023-02-03T06:32:49;101946.28;;;8.91;100.00
72959;BME280;60008;50.826;6.896;2023-02-03T06:35:34;101932.25;;;8.91;100.00
72959;BME280;60008;50.826;6.896;2023-02-03T06:38:19;101942.22;;;8.87;100.00
72959;BME280;60008;50.826;6.896;2023-02-03T06:41:04;101927.78;;;8.91;100.00
72959;BME280;60008;50.826;6.896;2023-02-03T06:43:49;101942.09;;;8.89;100.00
72959;BME280;60008;50.826;6.896;2023-02-03T06:46:34;101942.09;;;8.89;100.00
72959;BME280;60008;50.826;6.896;2023-02-03T06:49:19;101951.00;;;8.88;100.00
72959;BME280;60008;50.826;6.896;2023-02-03T06:52:04;101945.56;;;8.89;100.00
72959;BME280;60008;50.826;6.896;2023-02-03T06:54:49;101957.13;;;8.88;100.00
72959;BME280;60008;50.826;6.896;2023-02-03T06:57:34;101936.56;;;8.92;100.00
72959;BME280;60008;50.826;6.896;2023-02-03T07:00:19;101943.63;;;8.91;100.00
72959;BME280;60008;50.826;6.896;2023-02-03T07:03:04;101946.66;;;8.98;100.00
72959;BME280;60008;50.826;6.896;2023-02-03T07:05:49;101941.50;;;8.96;100.00
72959;BME280;60008;50.826;6.896;2023-02-03T07:08:34;101936.94;;;8.98;100.00
72959;BME280;60008;50.826;6.896;2023-02-03T07:11:19;101934.75;;;8.92;100.00
72959;BME280;60008;50.826;6.896;2023-02-03T07:14:03;101925.75;;;8.95;100.00
72959;BME280;60008;50.826;6.896;2023-02-03T07:16:48;101936.22;;;8.96;100.00
72959;BME280;60008;50.826;6.896;2023-02-03T07:19:33;101936.31;;;8.95;100.00
72959;BME280;60008;50.826;6.896;2023-02-03T07:22:18;101928.84;;;9.00;100.00
72959;BME280;60008;50.826;6.896;2023-02-03T07:25:03;101915.06;;;8.96;100.00
72959;BME280;60008;50.826;6.896;2023-02-03T07:27:48;101904.50;;;8.96;100.00
72959;BME280;60008;50.826;6.896;2023-02-03T07:30:33;101915.53;;;9.02;100.00
72959;BME280;60008;50.826;6.896;2023-02-03T07:33:18;101916.38;;;9.02;100.00
72959;BME280;60008;50.826;6.896;2023-02-03T07:36:05;101916.25;;;9.04;100.00
72959;BME280;60008;50.826;6.896;2023-02-03T07:38:50;101927.28;;;9.09;100.00
72959;BME280;60008;50.826;6.896;2023-02-03T07:41:35;101930.41;;;9.14;100.00
72959;BME280;60008;50.826;6.896;2023-02-03T07:44:20;101946.88;;;9.17;100.00
72959;BME280;60008;50.826;6.896;2023-02-03T07:47:05;101934.97;;;9.23;100.00
72959;BME280;60008;50.826;6.896;2023-02-03T07:49:49;101928.13;;;9.20;100.00
72959;BME280;60008;50.826;6.896;2023-02-03T07:52:35;101932.81;;;9.28;100.00
72959;BME280;60008;50.826;6.896;2023-02-03T07:55:21;101941.44;;;9.30;100.00
72959;BME280;60008;50.826;6.896;2023-02-03T07:58:06;101929.31;;;9.27;100.00
72959;BME280;60008;50.826;6.896;2023-02-03T08:00:51;101942.28;;;9.30;100.00
72959;BME280;60008;50.826;6.896;2023-02-03T08:03:36;101955.53;;;9.30;100.00
72959;BME280;60008;50.826;6.896;2023-02-03T08:06:21;101953.59;;;9.32;100.00
72959;BME280;60008;50.826;6.896;2023-02-03T08:09:07;101961.66;;;9.31;100.00
72959;BME280;60008;50.826;6.896;2023-02-03T08:11:52;101973.56;;;9.36;100.00
72959;BME280;60008;50.826;6.896;2023-02-03T08:14:36;101964.66;;;9.37;100.00
72959;BME280;60008;50.826;6.896;2023-02-03T08:17:22;101960.78;;;9.41;100.00
72959;BME280;60008;50.826;6.896;2023-02-03T08:20:07;101950.94;;;9.43;100.00
72959;BME280;60008;50.826;6.896;2023-02-03T08:22:53;101954.19;;;9.47;100.00
72959;BME280;60008;50.826;6.896;2023-02-03T08:25:38;101953.47;;;9.45;100.00
72959;BME280;60008;50.826;6.896;2023-02-03T08:28:22;101957.06;;;9.44;100.00
72959;BME280;60008;50.826;6.896;2023-02-03T08:31:09;101959.22;;;9.50;100.00
72959;BME280;60008;50.826;6.896;2023-02-03T08:33:54;101962.25;;;9.45;100.00
72959;BME280;60008;50.826;6.896;2023-02-03T08:36:39;101971.84;;;9.46;100.00
72959;BME280;60008;50.826;6.896;2023-02-03T08:39:24;101964.91;;;9.45;100.00
72959;BME280;60008;50.826;6.896;2023-02-03T08:42:10;101971.50;;;9.51;100.00
72959;BME280;60008;50.826;6.896;2023-02-03T08:44:55;101988.19;;;9.51;100.00
72959;BME280;60008;50.826;6.896;2023-02-03T08:47:40;101993.16;;;9.45;100.00
72959;BME280;60008;50.826;6.896;2023-02-03T08:50:25;102003.97;;;9.42;100.00
72959;BME280;60008;50.826;6.896;2023-02-03T08:53:10;102003.84;;;9.43;100.00
72959;BME280;60008;50.826;6.896;2023-02-03T08:55:55;102011.31;;;9.38;100.00
72959;BME280;60008;50.826;6.896;2023-02-03T08:58:40;102002.53;;;9.38;100.00
72959;BME280;60008;50.826;6.896;2023-02-03T09:01:25;101997.97;;;9.40;100.00
72959;BME280;60008;50.826;6.896;2023-02-03T09:04:11;102015.19;;;9.34;100.00
72959;BME280;60008;50.826;6.896;2023-02-03T09:06:56;101995.69;;;9.35;100.00
72959;BME280;60008;50.826;6.896;2023-02-03T09:09:41;102007.59;;;9.30;100.00
72959;BME280;60008;50.826;6.896;2023-02-03T09:12:26;102007.81;;;9.27;100.00
72959;BME280;60008;50.826;6.896;2023-02-03T09:15:11;102008.09;;;9.24;100.00
72959;BME280;60008;50.826;6.896;2023-02-03T09:17:56;101998.59;;;9.21;100.00
72959;BME280;60008;50.826;6.896;2023-02-03T09:20:41;102000.41;;;9.21;100.00
72959;BME280;60008;50.826;6.896;2023-02-03T09:23:26;102021.56;;;9.21;100.00
72959;BME280;60008;50.826;6.896;2023-02-03T09:26:13;102013.63;;;9.21;100.00
72959;BME280;60008;50.826;6.896;2023-02-03T09:28:58;102009.41;;;9.18;100.00
72959;BME280;60008;50.826;6.896;2023-02-03T09:31:43;101996.06;;;9.20;100.00
72959;BME280;60008;50.826;6.896;2023-02-03T09:34:30;102013.25;;;9.25;100.00
72959;BME280;60008;50.826;6.896;2023-02-03T09:37:15;101995.19;;;9.30;100.00
72959;BME280;60008;50.826;6.896;2023-02-03T09:40:00;101997.13;;;9.28;100.00
72959;BME280;60008;50.826;6.896;2023-02-03T09:43:06;102010.38;;;9.28;100.00
72959;BME280;60008;50.826;6.896;2023-02-03T09:46:06;102005.31;;;9.25;100.00
72959;BME280;60008;50.826;6.896;2023-02-03T09:48:55;101995.19;;;9.30;100.00
72959;BME280;60008;50.826;6.896;2023-02-03T09:52:02;101999.53;;;9.31;100.00
72959;BME280;60008;50.826;6.896;2023-02-03T09:57:47;101986.41;;;9.30;100.00
72959;BME280;60008;50.826;6.896;2023-02-03T10:00:41;102006.16;;;9.26;100.00
72959;BME280;60008;50.826;6.896;2023-02-03T10:03:43;101999.78;;;9.28;100.00
72959;BME280;60008;50.826;6.896;2023-02-03T10:06:43;102008.31;;;9.21;100.00
72959;BME280;60008;50.826;6.896;2023-02-03T10:15:46;102015.03;;;9.14;100.00
72959;BME280;60008;50.826;6.896;2023-02-03T10:19:01;102024.19;;;9.10;100.00
72959;BME280;60008;50.826;6.896;2023-02-03T10:21:56;102040.41;;;9.05;100.00
72959;BME280;60008;50.826;6.896;2023-02-03T10:24:55;102042.47;;;9.02;100.00
72959;BME280;60008;50.826;6.896;2023-02-03T10:27:42;102053.97;;;9.01;100.00
72959;BME280;60008;50.826;6.896;2023-02-03T10:30:35;102074.19;;;9.02;100.00
72959;BME280;60008;50.826;6.896;2023-02-03T10:33:30;102068.28;;;8.98;100.00
72959;BME280;60008;50.826;6.896;2023-02-03T10:36:20;102065.78;;;8.96;100.00
72959;BME280;60008;50.826;6.896;2023-02-03T10:39:16;102084.88;;;9.00;100.00
72959;BME280;60008;50.826;6.896;2023-02-03T10:42:04;102082.00;;;9.03;100.00
72959;BME280;60008;50.826;6.896;2023-02-03T10:44:55;102052.66;;;9.06;100.00
72959;BME280;60008;50.826;6.896;2023-02-03T10:47:45;102047.00;;;8.99;100.00
72959;BME280;60008;50.826;6.896;2023-02-03T10:50:32;102057.84;;;8.96;100.00
72959;BME280;60008;50.826;6.896;2023-02-03T10:56:06;102059.72;;;8.94;100.00
72959;BME280;60008;50.826;6.896;2023-02-03T10:58:57;102056.97;;;8.85;100.00
72959;BME280;60008;50.826;6.896;2023-02-03T11:01:46;102047.25;;;8.85;100.00
72959;BME280;60008;50.826;6.896;2023-02-03T11:04:32;102032.94;;;8.88;100.00
72959;BME280;60008;50.826;6.896;2023-02-03T11:07:25;102036.06;;;8.93;100.00
72959;BME280;60008;50.826;6.896;2023-02-03T11:10:33;102034.41;;;9.03;100.00
72959;BME280;60008;50.826;6.896;2023-02-03T11:13:23;102029.34;;;9.11;100.00
72959;BME280;60008;50.826;6.896;2023-02-03T11:16:17;102031.91;;;9.13;100.00
72959;BME280;60008;50.826;6.896;2023-02-03T11:19:06;102041.16;;;9.07;100.00
72959;BME280;60008;50.826;6.896;2023-02-03T11:21:54;102035.34;;;9.13;100.00
72959;BME280;60008;50.826;6.896;2023-02-03T11:24:44;102036.44;;;9.11;100.00
72959;BME280;60008;50.826;6.896;2023-02-03T11:27:31;102026.84;;;9.10;100.00
72959;BME280;60008;50.826;6.896;2023-02-03T11:30:23;102015.88;;;9.14;100.00
72959;BME280;60008;50.826;6.896;2023-02-03T11:33:18;102015.03;;;9.14;100.00
72959;BME280;60008;50.826;6.896;2023-02-03T11:36:04;102010.50;;;9.16;100.00
72959;BME280;60008;50.826;6.896;2023-02-03T11:38:49;102007.59;;;9.19;100.00
72959;BME280;60008;50.826;6.896;2023-02-03T11:41:38;102002.44;;;9.17;100.00
72959;BME280;60008;50.826;6.896;2023-02-03T11:44:25;102009.41;;;9.18;100.00
72959;BME280;60008;50.826;6.896;2023-02-03T11:47:13;102016.13;;;9.22;100.00
72959;BME280;60008;50.826;6.896;2023-02-03T11:50:15;102020.22;;;9.15;100.00
72959;BME280;60008;50.826;6.896;2023-02-03T11:53:37;102034.41;;;9.14;100.00
72959;BME280;60008;50.826;6.896;2023-02-03T12:00:14;102032.84;;;9.23;100.00
72959;BME280;60008;50.826;6.896;2023-02-03T12:03:17;102046.78;;;9.25;100.00
72959;BME280;60008;50.826;6.896;2023-02-03T12:12:21;102028.50;;;9.22;100.00
72959;BME280;60008;50.826;6.896;2023-02-03T12:21:42;102025.16;;;9.31;100.00
72959;BME280;60008;50.826;6.896;2023-02-03T12:30:27;102018.91;;;9.32;100.00
72959;BME280;60008;50.826;6.896;2023-02-03T12:33:22;102021.78;;;9.40;100.00
72959;BME280;60008;50.826;6.896;2023-02-03T12:36:21;102011.69;;;9.34;100.00
72959;BME280;60008;50.826;6.896;2023-02-03T12:39:22;102005.91;;;9.40;100.00
72959;BME280;60008;50.826;6.896;2023-02-03T12:42:31;102013.84;;;9.40;100.00
72959;BME280;60008;50.826;6.896;2023-02-03T12:45:28;102002.06;;;9.33;100.00
72959;BME280;60008;50.826;6.896;2023-02-03T12:48:18;102005.16;;;9.38;100.00
72959;BME280;60008;50.826;6.896;2023-02-03T12:51:08;102017.22;;;9.42;100.00
72959;BME280;60008;50.826;6.896;2023-02-03T12:54:00;102019.38;;;9.37;100.00
72959;BME280;60008;50.826;6.896;2023-02-03T12:56:49;102039.00;;;9.34;100.00
72959;BME280;60008;50.826;6.896;2023-02-03T12:59:39;102031.75;;;9.36;100.00
72959;BME280;60008;50.826;6.896;2023-02-03T13:02:28;102021.28;;;9.35;100.00
72959;BME280;60008;50.826;6.896;2023-02-03T13:05:31;102003.38;;;9.38;100.00
72959;BME280;60008;50.826;6.896;2023-02-03T13:08:24;102008.31;;;9.32;100.00
72959;BME280;60008;50.826;6.896;2023-02-03T13:11:20;102015.03;;;9.36;100.00
72959;BME280;60008;50.826;6.896;2023-02-03T13:14:26;102018.78;;;9.33;100.00
72959;BME280;60008;50.826;6.896;2023-02-03T13:17:33;102011.78;;;9.32;100.00
72959;BME280;60008;50.826;6.896;2023-02-03T13:20:24;102017.34;;;9.29;100.00
72959;BME280;60008;50.826;6.896;2023-02-03T13:23:14;102028.66;;;9.31;100.00
72959;BME280;60008;50.826;6.896;2023-02-03T13:32:43;102030.56;;;9.29;100.00
72959;BME280;60008;50.826;6.896;2023-02-03T13:41:42;102022.28;;;9.23;100.00
72959;BME280;60008;50.826;6.896;2023-02-03T13:44:30;102035.34;;;9.24;100.00
72959;BME280;60008;50.826;6.896;2023-02-03T13:47:18;102030.56;;;9.18;100.00
72959;BME280;60008;50.826;6.896;2023-02-03T13:50:15;102038.00;;;9.13;100.00
72959;BME280;60008;50.826;6.896;2023-02-03T13:55:53;102040.16;;;9.08;100.00
72959;BME280;60008;50.826;6.896;2023-02-03T13:58:39;102052.06;;;9.03;100.00
72959;BME280;60008;50.826;6.896;2023-02-03T14:01:38;102056.63;;;9.01;100.00
72959;BME280;60008;50.826;6.896;2023-02-03T14:12:57;102056.59;;;8.89;100.00
72959;BME280;60008;50.826;6.896;2023-02-03T14:15:43;102059.47;;;8.86;100.00
72959;BME280;60008;50.826;6.896;2023-02-03T14:18:33;102075.47;;;8.85;100.00
72959;BME280;60008;50.826;6.896;2023-02-03T14:21:21;102079.78;;;8.86;100.00
72959;BME280;60008;50.826;6.896;2023-02-03T14:24:09;102075.47;;;8.85;100.00
72959;BME280;60008;50.826;6.896;2023-02-03T14:26:57;102083.63;;;8.82;100.00
72959;BME280;60008;50.826;6.896;2023-02-03T14:29:43;102088.78;;;8.83;100.00
72959;BME280;60008;50.826;6.896;2023-02-03T14:32:57;102093.25;;;8.83;100.00
72959;BME280;60008;50.826;6.896;2023-02-03T14:35:43;102093.72;;;8.77;100.00
72959;BME280;60008;50.826;6.896;2023-02-03T14:38:31;102100.81;;;8.76;100.00
72959;BME280;60008;50.826;6.896;2023-02-03T14:41:20;102114.00;;;8.76;100.00
72959;BME280;60008;50.826;6.896;2023-02-03T14:50:44;102112.81;;;8.69;100.00
72959;BME280;60008;50.826;6.896;2023-02-03T14:53:59;102111.94;;;8.69;100.00
72959;BME280;60008;50.826;6.896;2023-02-03T14:57:19;102110.03;;;8.71;100.00
72959;BME280;60008;50.826;6.896;2023-02-03T15:05:57;102107.38;;;8.71;100.00
72959;BME280;60008;50.826;6.896;2023-02-03T15:08:45;102100.81;;;8.76;100.00
72959;BME280;60008;50.826;6.896;2023-02-03T15:11:32;102103.09;;;8.81;100.00
72959;BME280;60008;50.826;6.896;2023-02-03T15:14:23;102113.56;;;8.82;100.00
72959;BME280;60008;50.826;6.896;2023-02-03T15:17:27;102111.88;;;8.81;100.00
72959;BME280;60008;50.826;6.896;2023-02-03T15:20:24;102111.63;;;8.84;100.00
72959;BME280;60008;50.826;6.896;2023-02-03T15:23:24;102110.69;;;8.85;100.00
72959;BME280;60008;50.826;6.896;2023-02-03T15:26:14;102111.19;;;8.90;100.00
72959;BME280;60008;50.826;6.896;2023-02-03T15:29:01;102111.91;;;8.92;100.00
72959;BME280;60008;50.826;6.896;2023-02-03T15:31:51;102118.03;;;8.93;100.00
72959;BME280;60008;50.826;6.896;2023-02-03T15:34:42;102122.59;;;8.91;100.00
72959;BME280;60008;50.826;6.896;2023-02-03T15:37:32;102128.38;;;8.96;100.00
72959;BME280;60008;50.826;6.896;2023-02-03T15:40:21;102132.09;;;8.93;100.00
72959;BME280;60008;50.826;6.896;2023-02-03T15:43:16;102134.63;;;8.95;100.00
72959;BME280;60008;50.826;6.896;2023-02-03T15:49:02;102132.69;;;8.97;100.00
72959;BME280;60008;50.826;6.896;2023-02-03T15:51:56;102129.22;;;8.96;100.00
72959;BME280;60008;50.826;6.896;2023-02-03T15:54:48;102126.59;;;8.96;100.00
72959;BME280;60008;50.826;6.896;2023-02-03T15:57:37;102127.31;;;8.98;100.00
72959;BME280;60008;50.826;6.896;2023-02-03T16:00:30;102118.53;;;8.98;100.00
72959;BME280;60008;50.826;6.896;2023-02-03T16:03:39;102126.31;;;8.99;100.00
72959;BME280;60008;50.826;6.896;2023-02-03T16:06:31;102129.81;;;9.00;100.00
72959;BME280;60008;50.826;6.896;2023-02-03T16:09:31;102129.72;;;9.02;100.00
72959;BME280;60008;50.826;6.896;2023-02-03T16:15:23;102143.03;;;9.00;100.00